sensor_id;sensor_type;location;lat;lon;timestamp;P1;durP1;ratioP1;P2;durP2;ratioP2
76852;SDS011;65825;52.232;10.566;2023-08-06T00:00:22;6.03;;;3.50;;
76852;SDS011;65825;52.232;10.566;2023-08-06T00:02:47;5.03;;;3.00;;
76852;SDS011;65825;52.232;10.566;2023-08-06T00:05:13;6.10;;;3.42;;
76852;SDS011;65825;52.232;10.566;2023-08-06T00:07:38;6.38;;;3.92;;
76852;SDS011;65825;52.232;10.566;2023-08-06T00:10:04;7.57;;;3.33;;
76852;SDS011;65825;52.232;10.566;2023-08-06T00:12:30;7.18;;;4.10;;
76852;SDS011;65825;52.232;10.566;2023-08-06T00:14:55;6.90;;;3.80;;
76852;SDS011;65825;52.232;10.566;2023-08-06T00:17:20;6.45;;;3.85;;
76852;SDS011;65825;52.232;10.566;2023-08-06T00:19:46;6.28;;;3.65;;
76852;SDS011;65825;52.232;10.566;2023-08-06T00:22:11;5.17;;;3.53;;
76852;SDS011;65825;52.232;10.566;2023-08-06T00:24:36;8.37;;;4.33;;
76852;SDS011;65825;52.232;10.566;2023-08-06T00:27:02;7.55;;;4.05;;
76852;SDS011;65825;52.232;10.566;2023-08-06T00:29:27;7.10;;;3.70;;
76852;SDS011;65825;52.232;10.566;2023-08-06T00:31:53;6.38;;;4.18;;
76852;SDS011;65825;52.232;10.566;2023-08-06T00:34:18;7.28;;;3.80;;
76852;SDS011;65825;52.232;10.566;2023-08-06T00:36:43;5.97;;;3.38;;
76852;SDS011;65825;52.232;10.566;2023-08-06T00:39:09;6.63;;;3.72;;
76852;SDS011;65825;52.232;10.566;2023-08-06T00:41:34;6.60;;;3.47;;
76852;SDS011;65825;52.232;10.566;2023-08-06T00:43:59;6.90;;;4.10;;
76852;SDS011;65825;52.232;10.566;2023-08-06T00:46:25;5.33;;;3.10;;
76852;SDS011;65825;52.232;10.566;2023-08-06T00:48:51;4.88;;;3.22;;
76852;SDS011;65825;52.232;10.566;2023-08-06T00:51:17;5.68;;;3.53;;
76852;SDS011;65825;52.232;10.566;2023-08-06T00:53:42;8.85;;;4.30;;
76852;SDS011;65825;52.232;10.566;2023-08-06T00:56:08;5.07;;;3.20;;
76852;SDS011;65825;52.232;10.566;2023-08-06T00:58:34;6.60;;;3.28;;
76852;SDS011;65825;52.232;10.566;2023-08-06T01:01:01;5.97;;;3.33;;
76852;SDS011;65825;52.232;10.566;2023-08-06T01:03:26;5.18;;;3.15;;
76852;SDS011;65825;52.232;10.566;2023-08-06T01:05:52;6.07;;;3.45;;
76852;SDS011;65825;52.232;10.566;2023-08-06T01:08:20;4.80;;;3.15;;
76852;SDS011;65825;52.232;10.566;2023-08-06T01:11:16;8.93;;;3.10;;
76852;SDS011;65825;52.232;10.566;2023-08-06T01:14:03;4.97;;;3.00;;
76852;SDS011;65825;52.232;10.566;2023-08-06T01:16:36;6.10;;;3.50;;
76852;SDS011;65825;52.232;10.566;2023-08-06T01:19:02;6.00;;;3.63;;
76852;SDS011;65825;52.232;10.566;2023-08-06T01:21:28;5.38;;;3.40;;
76852;SDS011;65825;52.232;10.566;2023-08-06T01:23:53;5.77;;;3.43;;
76852;SDS011;65825;52.232;10.566;2023-08-06T01:26:30;7.75;;;3.63;;
76852;SDS011;65825;52.232;10.566;2023-08-06T01:29:06;7.97;;;4.40;;
76852;SDS011;65825;52.232;10.566;2023-08-06T01:31:38;10.30;;;4.70;;
76852;SDS011;65825;52.232;10.566;2023-08-06T01:34:07;7.72;;;4.05;;
76852;SDS011;65825;52.232;10.566;2023-08-06T01:36:38;6.97;;;3.83;;
76852;SDS011;65825;52.232;10.566;2023-08-06T01:39:04;6.13;;;4.00;;
76852;SDS011;65825;52.232;10.566;2023-08-06T01:41:30;6.57;;;4.20;;
76852;SDS011;65825;52.232;10.566;2023-08-06T01:43:55;9.23;;;4.27;;
76852;SDS011;65825;52.232;10.566;2023-08-06T01:46:20;9.17;;;4.33;;
76852;SDS011;65825;52.232;10.566;2023-08-06T01:48:46;6.93;;;4.07;;
76852;SDS011;65825;52.232;10.566;2023-08-06T01:51:11;7.93;;;4.50;;
76852;SDS011;65825;52.232;10.566;2023-08-06T01:53:36;8.67;;;4.43;;
76852;SDS011;65825;52.232;10.566;2023-08-06T01:56:01;8.35;;;4.45;;
76852;SDS011;65825;52.232;10.566;2023-08-06T01:58:27;10.25;;;4.00;;
76852;SDS011;65825;52.232;10.566;2023-08-06T02:00:52;6.93;;;4.20;;
76852;SDS011;65825;52.232;10.566;2023-08-06T02:03:17;8.57;;;4.40;;
76852;SDS011;65825;52.232;10.566;2023-08-06T02:05:43;7.23;;;4.47;;
76852;SDS011;65825;52.232;10.566;2023-08-06T02:08:08;12.30;;;5.35;;
76852;SDS011;65825;52.232;10.566;2023-08-06T02:10:33;5.75;;;3.88;;
76852;SDS011;65825;52.232;10.566;2023-08-06T02:12:59;7.20;;;4.10;;
76852;SDS011;65825;52.232;10.566;2023-08-06T02:15:24;8.60;;;4.25;;
76852;SDS011;65825;52.232;10.566;2023-08-06T02:17:49;7.00;;;4.30;;
76852;SDS011;65825;52.232;10.566;2023-08-06T02:20:15;6.57;;;4.10;;
76852;SDS011;65825;52.232;10.566;2023-08-06T02:22:40;7.85;;;4.22;;
76852;SDS011;65825;52.232;10.566;2023-08-06T02:25:05;6.20;;;3.72;;
76852;SDS011;65825;52.232;10.566;2023-08-06T02:27:31;7.75;;;4.35;;
76852;SDS011;65825;52.232;10.566;2023-08-06T02:29:56;5.87;;;3.80;;
76852;SDS011;65825;52.232;10.566;2023-08-06T02:32:21;5.95;;;3.90;;
76852;SDS011;65825;52.232;10.566;2023-08-06T02:34:47;6.78;;;4.30;;
76852;SDS011;65825;52.232;10.566;2023-08-06T02:37:12;6.80;;;4.28;;
76852;SDS011;65825;52.232;10.566;2023-08-06T02:39:37;6.65;;;4.32;;
76852;SDS011;65825;52.232;10.566;2023-08-06T02:42:05;8.95;;;4.40;;
76852;SDS011;65825;52.232;10.566;2023-08-06T02:44:32;9.73;;;4.43;;
76852;SDS011;65825;52.232;10.566;2023-08-06T02:49:23;8.23;;;4.37;;
76852;SDS011;65825;52.232;10.566;2023-08-06T02:51:49;10.00;;;4.60;;
76852;SDS011;65825;52.232;10.566;2023-08-06T02:54:14;7.53;;;4.40;;
76852;SDS011;65825;52.232;10.566;2023-08-06T02:56:42;7.68;;;4.35;;
76852;SDS011;65825;52.232;10.566;2023-08-06T02:59:08;9.52;;;4.97;;
76852;SDS011;65825;52.232;10.566;2023-08-06T03:01:34;10.80;;;5.30;;
76852;SDS011;65825;52.232;10.566;2023-08-06T03:03:59;8.13;;;4.00;;
76852;SDS011;65825;52.232;10.566;2023-08-06T03:06:24;7.83;;;4.57;;
76852;SDS011;65825;52.232;10.566;2023-08-06T03:08:49;8.93;;;4.77;;
76852;SDS011;65825;52.232;10.566;2023-08-06T03:11:15;7.93;;;4.73;;
76852;SDS011;65825;52.232;10.566;2023-08-06T03:13:40;10.33;;;5.43;;
76852;SDS011;65825;52.232;10.566;2023-08-06T03:16:05;8.53;;;4.80;;
76852;SDS011;65825;52.232;10.566;2023-08-06T03:18:30;7.15;;;4.32;;
76852;SDS011;65825;52.232;10.566;2023-08-06T03:20:56;15.27;;;4.97;;
76852;SDS011;65825;52.232;10.566;2023-08-06T03:23:21;8.82;;;4.55;;
76852;SDS011;65825;52.232;10.566;2023-08-06T03:25:47;10.05;;;4.35;;
76852;SDS011;65825;52.232;10.566;2023-08-06T03:28:12;9.57;;;5.00;;
76852;SDS011;65825;52.232;10.566;2023-08-06T03:30:37;8.53;;;4.90;;
76852;SDS011;65825;52.232;10.566;2023-08-06T03:33:03;7.15;;;4.40;;
76852;SDS011;65825;52.232;10.566;2023-08-06T03:35:28;13.45;;;6.07;;
76852;SDS011;65825;52.232;10.566;2023-08-06T03:37:54;8.60;;;4.70;;
76852;SDS011;65825;52.232;10.566;2023-08-06T03:40:19;6.40;;;4.53;;
76852;SDS011;65825;52.232;10.566;2023-08-06T03:42:44;7.80;;;4.47;;
76852;SDS011;65825;52.232;10.566;2023-08-06T03:45:09;12.13;;;5.07;;
76852;SDS011;65825;52.232;10.566;2023-08-06T03:47:35;8.68;;;4.90;;
76852;SDS011;65825;52.232;10.566;2023-08-06T03:50:00;7.40;;;4.55;;
76852;SDS011;65825;52.232;10.566;2023-08-06T03:52:26;8.55;;;4.45;;
76852;SDS011;65825;52.232;10.566;2023-08-06T03:54:51;8.57;;;4.33;;
76852;SDS011;65825;52.232;10.566;2023-08-06T03:57:17;8.17;;;4.57;;
76852;SDS011;65825;52.232;10.566;2023-08-06T03:59:43;9.27;;;4.30;;
76852;SDS011;65825;52.232;10.566;2023-08-06T04:02:08;6.87;;;4.40;;
76852;SDS011;65825;52.232;10.566;2023-08-06T04:04:34;7.53;;;4.60;;
76852;SDS011;65825;52.232;10.566;2023-08-06T04:06:59;7.03;;;3.92;;
76852;SDS011;65825;52.232;10.566;2023-08-06T04:09:24;10.97;;;4.27;;
76852;SDS011;65825;52.232;10.566;2023-08-06T04:11:49;8.67;;;4.23;;
76852;SDS011;65825;52.232;10.566;2023-08-06T04:14:15;7.70;;;4.30;;
76852;SDS011;65825;52.232;10.566;2023-08-06T04:16:40;7.13;;;4.25;;
76852;SDS011;65825;52.232;10.566;2023-08-06T04:19:05;6.03;;;3.80;;
76852;SDS011;65825;52.232;10.566;2023-08-06T04:21:30;5.93;;;3.70;;
76852;SDS011;65825;52.232;10.566;2023-08-06T04:23:56;6.88;;;4.18;;
76852;SDS011;65825;52.232;10.566;2023-08-06T04:26:21;6.55;;;4.13;;
76852;SDS011;65825;52.232;10.566;2023-08-06T04:28:47;8.15;;;4.68;;
76852;SDS011;65825;52.232;10.566;2023-08-06T04:31:13;11.32;;;4.57;;
76852;SDS011;65825;52.232;10.566;2023-08-06T04:33:39;7.78;;;4.03;;
76852;SDS011;65825;52.232;10.566;2023-08-06T04:36:04;6.63;;;4.20;;
76852;SDS011;65825;52.232;10.566;2023-08-06T04:38:29;8.82;;;4.30;;
76852;SDS011;65825;52.232;10.566;2023-08-06T04:40:55;7.78;;;4.45;;
76852;SDS011;65825;52.232;10.566;2023-08-06T04:43:20;6.37;;;4.00;;
76852;SDS011;65825;52.232;10.566;2023-08-06T04:45:49;7.93;;;4.00;;
76852;SDS011;65825;52.232;10.566;2023-08-06T04:48:14;14.65;;;4.60;;
76852;SDS011;65825;52.232;10.566;2023-08-06T04:50:43;7.00;;;4.10;;
76852;SDS011;65825;52.232;10.566;2023-08-06T04:53:12;7.80;;;3.95;;
76852;SDS011;65825;52.232;10.566;2023-08-06T04:55:37;6.72;;;4.13;;
76852;SDS011;65825;52.232;10.566;2023-08-06T04:58:03;7.32;;;3.75;;
76852;SDS011;65825;52.232;10.566;2023-08-06T05:00:28;7.05;;;3.90;;
76852;SDS011;65825;52.232;10.566;2023-08-06T05:02:53;10.33;;;4.47;;
76852;SDS011;65825;52.232;10.566;2023-08-06T05:05:19;7.55;;;3.97;;
76852;SDS011;65825;52.232;10.566;2023-08-06T05:07:45;7.60;;;4.23;;
76852;SDS011;65825;52.232;10.566;2023-08-06T05:10:13;7.53;;;3.80;;
76852;SDS011;65825;52.232;10.566;2023-08-06T05:12:38;6.05;;;3.90;;
76852;SDS011;65825;52.232;10.566;2023-08-06T05:15:04;6.97;;;4.07;;
76852;SDS011;65825;52.232;10.566;2023-08-06T05:17:29;5.13;;;3.50;;
76852;SDS011;65825;52.232;10.566;2023-08-06T05:19:54;6.63;;;3.60;;
76852;SDS011;65825;52.232;10.566;2023-08-06T05:22:20;6.50;;;3.60;;
76852;SDS011;65825;52.232;10.566;2023-08-06T05:24:45;7.60;;;3.60;;
76852;SDS011;65825;52.232;10.566;2023-08-06T05:27:10;6.47;;;3.70;;
76852;SDS011;65825;52.232;10.566;2023-08-06T05:29:35;6.63;;;3.77;;
76852;SDS011;65825;52.232;10.566;2023-08-06T05:32:01;5.50;;;3.50;;
76852;SDS011;65825;52.232;10.566;2023-08-06T05:34:26;5.63;;;3.38;;
76852;SDS011;65825;52.232;10.566;2023-08-06T05:36:51;5.73;;;3.90;;
76852;SDS011;65825;52.232;10.566;2023-08-06T05:39:17;9.52;;;3.63;;
76852;SDS011;65825;52.232;10.566;2023-08-06T05:41:43;6.13;;;4.10;;
76852;SDS011;65825;52.232;10.566;2023-08-06T05:44:08;6.70;;;3.60;;
76852;SDS011;65825;52.232;10.566;2023-08-06T05:46:33;5.03;;;3.30;;
76852;SDS011;65825;52.232;10.566;2023-08-06T05:48:58;6.32;;;2.97;;
76852;SDS011;65825;52.232;10.566;2023-08-06T05:51:25;5.18;;;3.30;;
76852;SDS011;65825;52.232;10.566;2023-08-06T05:53:52;5.47;;;3.40;;
76852;SDS011;65825;52.232;10.566;2023-08-06T05:56:17;6.15;;;3.45;;
76852;SDS011;65825;52.232;10.566;2023-08-06T05:58:42;6.50;;;3.50;;
76852;SDS011;65825;52.232;10.566;2023-08-06T06:01:08;5.73;;;3.70;;
76852;SDS011;65825;52.232;10.566;2023-08-06T06:03:33;5.73;;;3.53;;
76852;SDS011;65825;52.232;10.566;2023-08-06T06:05:59;8.30;;;3.30;;
76852;SDS011;65825;52.232;10.566;2023-08-06T06:08:26;8.07;;;3.40;;
76852;SDS011;65825;52.232;10.566;2023-08-06T06:10:51;8.82;;;3.53;;
76852;SDS011;65825;52.232;10.566;2023-08-06T06:13:17;6.50;;;3.45;;
76852;SDS011;65825;52.232;10.566;2023-08-06T06:15:42;7.63;;;3.80;;
76852;SDS011;65825;52.232;10.566;2023-08-06T06:18:07;6.83;;;3.20;;
76852;SDS011;65825;52.232;10.566;2023-08-06T06:20:32;6.30;;;4.07;;
76852;SDS011;65825;52.232;10.566;2023-08-06T06:22:58;6.03;;;3.85;;
76852;SDS011;65825;52.232;10.566;2023-08-06T06:25:23;8.50;;;4.10;;
76852;SDS011;65825;52.232;10.566;2023-08-06T06:27:49;8.00;;;3.37;;
76852;SDS011;65825;52.232;10.566;2023-08-06T06:30:14;5.00;;;3.23;;
76852;SDS011;65825;52.232;10.566;2023-08-06T06:32:39;7.93;;;3.55;;
76852;SDS011;65825;52.232;10.566;2023-08-06T06:35:05;7.38;;;3.50;;
76852;SDS011;65825;52.232;10.566;2023-08-06T06:37:31;7.28;;;3.15;;
76852;SDS011;65825;52.232;10.566;2023-08-06T06:39:56;7.70;;;3.50;;
76852;SDS011;65825;52.232;10.566;2023-08-06T06:42:22;7.10;;;3.17;;
76852;SDS011;65825;52.232;10.566;2023-08-06T06:44:47;4.65;;;2.80;;
76852;SDS011;65825;52.232;10.566;2023-08-06T06:47:13;4.20;;;2.47;;
76852;SDS011;65825;52.232;10.566;2023-08-06T06:49:38;4.23;;;2.90;;
76852;SDS011;65825;52.232;10.566;2023-08-06T06:52:03;4.97;;;2.60;;
76852;SDS011;65825;52.232;10.566;2023-08-06T06:54:29;3.83;;;2.33;;
76852;SDS011;65825;52.232;10.566;2023-08-06T06:56:54;5.90;;;3.03;;
76852;SDS011;65825;52.232;10.566;2023-08-06T06:59:19;3.30;;;2.30;;
76852;SDS011;65825;52.232;10.566;2023-08-06T07:01:45;3.55;;;2.30;;
76852;SDS011;65825;52.232;10.566;2023-08-06T07:04:10;5.83;;;2.70;;
76852;SDS011;65825;52.232;10.566;2023-08-06T07:06:35;6.03;;;2.70;;
76852;SDS011;65825;52.232;10.566;2023-08-06T07:09:00;4.27;;;2.10;;
76852;SDS011;65825;52.232;10.566;2023-08-06T07:11:26;4.60;;;2.40;;
76852;SDS011;65825;52.232;10.566;2023-08-06T07:13:55;3.40;;;2.10;;
76852;SDS011;65825;52.232;10.566;2023-08-06T07:16:21;4.03;;;2.20;;
76852;SDS011;65825;52.232;10.566;2023-08-06T07:18:47;4.57;;;2.22;;
76852;SDS011;65825;52.232;10.566;2023-08-06T07:21:12;4.53;;;2.20;;
76852;SDS011;65825;52.232;10.566;2023-08-06T07:23:37;3.03;;;2.10;;
76852;SDS011;65825;52.232;10.566;2023-08-06T07:26:02;3.57;;;1.90;;
76852;SDS011;65825;52.232;10.566;2023-08-06T07:28:28;2.70;;;1.83;;
76852;SDS011;65825;52.232;10.566;2023-08-06T07:30:53;3.45;;;2.10;;
76852;SDS011;65825;52.232;10.566;2023-08-06T07:33:18;3.60;;;2.10;;
76852;SDS011;65825;52.232;10.566;2023-08-06T07:35:44;3.37;;;2.00;;
76852;SDS011;65825;52.232;10.566;2023-08-06T07:38:09;3.40;;;2.37;;
76852;SDS011;65825;52.232;10.566;2023-08-06T07:40:38;3.00;;;1.90;;
76852;SDS011;65825;52.232;10.566;2023-08-06T07:43:03;4.25;;;2.00;;
76852;SDS011;65825;52.232;10.566;2023-08-06T07:45:32;3.55;;;2.00;;
76852;SDS011;65825;52.232;10.566;2023-08-06T07:47:58;3.80;;;2.60;;
76852;SDS011;65825;52.232;10.566;2023-08-06T07:50:25;3.40;;;2.33;;
76852;SDS011;65825;52.232;10.566;2023-08-06T07:52:50;5.35;;;2.30;;
76852;SDS011;65825;52.232;10.566;2023-08-06T07:55:15;3.47;;;2.20;;
76852;SDS011;65825;52.232;10.566;2023-08-06T07:57:41;3.13;;;2.38;;
76852;SDS011;65825;52.232;10.566;2023-08-06T08:02:31;4.25;;;2.30;;
76852;SDS011;65825;52.232;10.566;2023-08-06T08:04:57;2.55;;;1.75;;
76852;SDS011;65825;52.232;10.566;2023-08-06T08:07:22;3.33;;;2.20;;
76852;SDS011;65825;52.232;10.566;2023-08-06T08:12:13;2.95;;;1.90;;
76852;SDS011;65825;52.232;10.566;2023-08-06T08:14:38;3.03;;;1.83;;
76852;SDS011;65825;52.232;10.566;2023-08-06T08:19:30;4.22;;;1.80;;
76852;SDS011;65825;52.232;10.566;2023-08-06T08:21:56;2.63;;;1.60;;
76852;SDS011;65825;52.232;10.566;2023-08-06T08:24:22;2.67;;;2.17;;
76852;SDS011;65825;52.232;10.566;2023-08-06T08:26:49;5.82;;;1.73;;
76852;SDS011;65825;52.232;10.566;2023-08-06T08:29:15;2.83;;;1.90;;
76852;SDS011;65825;52.232;10.566;2023-08-06T08:31:40;6.32;;;2.45;;
76852;SDS011;65825;52.232;10.566;2023-08-06T08:34:05;6.63;;;1.98;;
76852;SDS011;65825;52.232;10.566;2023-08-06T08:36:31;3.67;;;1.92;;
76852;SDS011;65825;52.232;10.566;2023-08-06T08:38:56;3.13;;;2.20;;
76852;SDS011;65825;52.232;10.566;2023-08-06T08:41:22;2.95;;;1.90;;
76852;SDS011;65825;52.232;10.566;2023-08-06T08:43:48;2.50;;;1.80;;
76852;SDS011;65825;52.232;10.566;2023-08-06T08:46:16;3.55;;;2.13;;
76852;SDS011;65825;52.232;10.566;2023-08-06T08:48:43;4.60;;;2.03;;
76852;SDS011;65825;52.232;10.566;2023-08-06T08:51:08;4.20;;;2.03;;
76852;SDS011;65825;52.232;10.566;2023-08-06T08:53:35;4.82;;;2.15;;
76852;SDS011;65825;52.232;10.566;2023-08-06T08:56:04;2.53;;;1.95;;
76852;SDS011;65825;52.232;10.566;2023-08-06T08:58:30;3.40;;;2.10;;
76852;SDS011;65825;52.232;10.566;2023-08-06T09:00:56;3.70;;;2.00;;
76852;SDS011;65825;52.232;10.566;2023-08-06T09:03:22;2.78;;;1.88;;
76852;SDS011;65825;52.232;10.566;2023-08-06T09:05:49;5.40;;;2.00;;
76852;SDS011;65825;52.232;10.566;2023-08-06T09:08:18;3.22;;;1.80;;
76852;SDS011;65825;52.232;10.566;2023-08-06T09:10:47;2.78;;;1.77;;
76852;SDS011;65825;52.232;10.566;2023-08-06T09:13:13;4.05;;;2.00;;
76852;SDS011;65825;52.232;10.566;2023-08-06T09:15:39;3.00;;;1.90;;
76852;SDS011;65825;52.232;10.566;2023-08-06T09:18:10;3.47;;;2.10;;
76852;SDS011;65825;52.232;10.566;2023-08-06T09:20:37;2.92;;;2.20;;
76852;SDS011;65825;52.232;10.566;2023-08-06T09:23:10;3.67;;;1.95;;
76852;SDS011;65825;52.232;10.566;2023-08-06T09:25:38;2.90;;;1.80;;
76852;SDS011;65825;52.232;10.566;2023-08-06T09:28:07;7.57;;;2.97;;
76852;SDS011;65825;52.232;10.566;2023-08-06T09:30:33;3.35;;;1.92;;
76852;SDS011;65825;52.232;10.566;2023-08-06T09:33:01;3.13;;;2.13;;
76852;SDS011;65825;52.232;10.566;2023-08-06T09:35:29;3.30;;;1.90;;
76852;SDS011;65825;52.232;10.566;2023-08-06T09:37:56;3.70;;;1.95;;
76852;SDS011;65825;52.232;10.566;2023-08-06T09:40:32;2.80;;;2.03;;
76852;SDS011;65825;52.232;10.566;2023-08-06T09:42:58;3.65;;;1.95;;
76852;SDS011;65825;52.232;10.566;2023-08-06T09:45:34;2.67;;;1.90;;
76852;SDS011;65825;52.232;10.566;2023-08-06T09:48:04;3.83;;;1.98;;
76852;SDS011;65825;52.232;10.566;2023-08-06T09:50:31;4.63;;;1.80;;
76852;SDS011;65825;52.232;10.566;2023-08-06T09:52:57;3.55;;;2.00;;
76852;SDS011;65825;52.232;10.566;2023-08-06T09:55:24;3.58;;;1.95;;
76852;SDS011;65825;52.232;10.566;2023-08-06T09:57:51;5.38;;;3.80;;
76852;SDS011;65825;52.232;10.566;2023-08-06T10:00:17;2.88;;;1.80;;
76852;SDS011;65825;52.232;10.566;2023-08-06T10:02:42;2.83;;;2.00;;
76852;SDS011;65825;52.232;10.566;2023-08-06T10:05:09;3.08;;;1.90;;
76852;SDS011;65825;52.232;10.566;2023-08-06T10:07:34;2.65;;;1.73;;
76852;SDS011;65825;52.232;10.566;2023-08-06T10:10:00;4.60;;;1.90;;
76852;SDS011;65825;52.232;10.566;2023-08-06T10:12:28;3.50;;;2.13;;
76852;SDS011;65825;52.232;10.566;2023-08-06T10:14:57;3.80;;;1.90;;
76852;SDS011;65825;52.232;10.566;2023-08-06T10:17:26;3.20;;;1.95;;
76852;SDS011;65825;52.232;10.566;2023-08-06T10:19:52;3.53;;;2.00;;
76852;SDS011;65825;52.232;10.566;2023-08-06T10:22:20;3.10;;;1.70;;
76852;SDS011;65825;52.232;10.566;2023-08-06T10:27:13;3.05;;;1.80;;
76852;SDS011;65825;52.232;10.566;2023-08-06T10:29:39;3.97;;;2.00;;
76852;SDS011;65825;52.232;10.566;2023-08-06T10:32:04;3.22;;;2.08;;
76852;SDS011;65825;52.232;10.566;2023-08-06T10:37:24;3.10;;;2.15;;
76852;SDS011;65825;52.232;10.566;2023-08-06T10:39:59;2.28;;;1.70;;
76852;SDS011;65825;52.232;10.566;2023-08-06T10:42:27;3.53;;;1.87;;
76852;SDS011;65825;52.232;10.566;2023-08-06T10:45:10;2.65;;;1.90;;
76852;SDS011;65825;52.232;10.566;2023-08-06T10:47:40;2.90;;;1.80;;
76852;SDS011;65825;52.232;10.566;2023-08-06T10:50:13;3.22;;;1.80;;
76852;SDS011;65825;52.232;10.566;2023-08-06T10:52:41;3.65;;;1.80;;
76852;SDS011;65825;52.232;10.566;2023-08-06T10:55:07;2.60;;;1.80;;
76852;SDS011;65825;52.232;10.566;2023-08-06T10:57:34;2.65;;;1.90;;
76852;SDS011;65825;52.232;10.566;2023-08-06T10:59:59;2.90;;;1.73;;
76852;SDS011;65825;52.232;10.566;2023-08-06T11:02:25;3.43;;;1.80;;
76852;SDS011;65825;52.232;10.566;2023-08-06T11:04:57;2.20;;;1.60;;
76852;SDS011;65825;52.232;10.566;2023-08-06T11:07:22;3.05;;;1.80;;
76852;SDS011;65825;52.232;10.566;2023-08-06T11:09:50;3.75;;;2.00;;
76852;SDS011;65825;52.232;10.566;2023-08-06T11:12:19;3.15;;;1.70;;
76852;SDS011;65825;52.232;10.566;2023-08-06T11:14:49;3.97;;;1.65;;
76852;SDS011;65825;52.232;10.566;2023-08-06T11:17:15;2.85;;;1.70;;
76852;SDS011;65825;52.232;10.566;2023-08-06T11:19:40;2.83;;;1.63;;
76852;SDS011;65825;52.232;10.566;2023-08-06T11:22:06;3.30;;;1.60;;
76852;SDS011;65825;52.232;10.566;2023-08-06T11:24:31;2.70;;;1.70;;
76852;SDS011;65825;52.232;10.566;2023-08-06T11:26:56;2.37;;;1.60;;
76852;SDS011;65825;52.232;10.566;2023-08-06T11:29:22;2.75;;;1.70;;
76852;SDS011;65825;52.232;10.566;2023-08-06T11:31:48;2.70;;;1.83;;
76852;SDS011;65825;52.232;10.566;2023-08-06T11:34:13;2.10;;;1.50;;
76852;SDS011;65825;52.232;10.566;2023-08-06T11:36:40;2.50;;;1.80;;
76852;SDS011;65825;52.232;10.566;2023-08-06T11:39:05;2.50;;;1.60;;
76852;SDS011;65825;52.232;10.566;2023-08-06T11:41:31;2.50;;;1.60;;
76852;SDS011;65825;52.232;10.566;2023-08-06T11:43:57;3.55;;;1.70;;
76852;SDS011;65825;52.232;10.566;2023-08-06T11:46:23;2.50;;;1.70;;
76852;SDS011;65825;52.232;10.566;2023-08-06T11:48:50;2.75;;;1.67;;
76852;SDS011;65825;52.232;10.566;2023-08-06T11:51:17;2.42;;;1.70;;
76852;SDS011;65825;52.232;10.566;2023-08-06T11:53:46;3.37;;;1.80;;
76852;SDS011;65825;52.232;10.566;2023-08-06T11:56:13;2.72;;;1.70;;
76852;SDS011;65825;52.232;10.566;2023-08-06T11:58:40;2.65;;;1.70;;
76852;SDS011;65825;52.232;10.566;2023-08-06T12:01:06;3.15;;;1.73;;
76852;SDS011;65825;52.232;10.566;2023-08-06T12:03:31;3.13;;;1.80;;
76852;SDS011;65825;52.232;10.566;2023-08-06T12:05:57;4.13;;;1.70;;
76852;SDS011;65825;52.232;10.566;2023-08-06T12:08:26;4.00;;;1.70;;
76852;SDS011;65825;52.232;10.566;2023-08-06T12:10:52;3.17;;;1.63;;
76852;SDS011;65825;52.232;10.566;2023-08-06T12:13:18;4.38;;;1.73;;
76852;SDS011;65825;52.232;10.566;2023-08-06T12:15:44;2.83;;;1.75;;
76852;SDS011;65825;52.232;10.566;2023-08-06T12:18:10;2.55;;;1.73;;
76852;SDS011;65825;52.232;10.566;2023-08-06T12:20:35;2.20;;;1.60;;
76852;SDS011;65825;52.232;10.566;2023-08-06T12:23:00;3.40;;;1.90;;
76852;SDS011;65825;52.232;10.566;2023-08-06T12:25:25;4.70;;;1.90;;
76852;SDS011;65825;52.232;10.566;2023-08-06T12:27:51;2.50;;;1.80;;
76852;SDS011;65825;52.232;10.566;2023-08-06T12:30:16;3.85;;;1.98;;
76852;SDS011;65825;52.232;10.566;2023-08-06T12:32:41;3.13;;;1.92;;
76852;SDS011;65825;52.232;10.566;2023-08-06T12:35:07;2.33;;;1.67;;
76852;SDS011;65825;52.232;10.566;2023-08-06T12:37:33;3.00;;;2.10;;
76852;SDS011;65825;52.232;10.566;2023-08-06T12:39:58;2.75;;;1.75;;
76852;SDS011;65825;52.232;10.566;2023-08-06T12:42:24;2.78;;;1.75;;
76852;SDS011;65825;52.232;10.566;2023-08-06T12:44:49;3.28;;;1.80;;
76852;SDS011;65825;52.232;10.566;2023-08-06T12:47:15;4.90;;;1.70;;
76852;SDS011;65825;52.232;10.566;2023-08-06T12:49:41;3.13;;;1.80;;
76852;SDS011;65825;52.232;10.566;2023-08-06T12:52:06;3.33;;;1.70;;
76852;SDS011;65825;52.232;10.566;2023-08-06T12:54:34;3.80;;;1.88;;
76852;SDS011;65825;52.232;10.566;2023-08-06T12:57:01;2.63;;;1.70;;
76852;SDS011;65825;52.232;10.566;2023-08-06T12:59:27;2.35;;;1.70;;
76852;SDS011;65825;52.232;10.566;2023-08-06T13:01:52;3.60;;;2.13;;
76852;SDS011;65825;52.232;10.566;2023-08-06T13:04:18;2.63;;;1.70;;
76852;SDS011;65825;52.232;10.566;2023-08-06T13:06:43;2.47;;;1.70;;
76852;SDS011;65825;52.232;10.566;2023-08-06T13:09:09;3.80;;;1.80;;
76852;SDS011;65825;52.232;10.566;2023-08-06T13:11:35;4.13;;;1.88;;
76852;SDS011;65825;52.232;10.566;2023-08-06T13:14:03;3.20;;;1.98;;
76852;SDS011;65825;52.232;10.566;2023-08-06T13:16:34;2.83;;;1.88;;
76852;SDS011;65825;52.232;10.566;2023-08-06T13:19:00;4.60;;;2.00;;
76852;SDS011;65825;52.232;10.566;2023-08-06T13:21:32;2.83;;;1.73;;
76852;SDS011;65825;52.232;10.566;2023-08-06T13:23:59;3.00;;;1.85;;
76852;SDS011;65825;52.232;10.566;2023-08-06T13:26:25;2.58;;;1.73;;
76852;SDS011;65825;52.232;10.566;2023-08-06T13:28:50;3.23;;;1.50;;
76852;SDS011;65825;52.232;10.566;2023-08-06T13:31:16;2.47;;;1.60;;
76852;SDS011;65825;52.232;10.566;2023-08-06T13:33:41;3.50;;;1.85;;
76852;SDS011;65825;52.232;10.566;2023-08-06T13:36:06;3.67;;;1.90;;
76852;SDS011;65825;52.232;10.566;2023-08-06T13:38:31;2.67;;;1.77;;
76852;SDS011;65825;52.232;10.566;2023-08-06T13:40:57;2.67;;;1.80;;
76852;SDS011;65825;52.232;10.566;2023-08-06T13:43:22;2.30;;;1.50;;
76852;SDS011;65825;52.232;10.566;2023-08-06T13:45:47;3.80;;;1.60;;
76852;SDS011;65825;52.232;10.566;2023-08-06T13:48:13;3.57;;;1.40;;
76852;SDS011;65825;52.232;10.566;2023-08-06T13:50:38;2.37;;;1.50;;
76852;SDS011;65825;52.232;10.566;2023-08-06T13:53:03;3.95;;;1.70;;
76852;SDS011;65825;52.232;10.566;2023-08-06T13:55:28;2.97;;;1.80;;
76852;SDS011;65825;52.232;10.566;2023-08-06T13:57:55;2.20;;;1.60;;
76852;SDS011;65825;52.232;10.566;2023-08-06T14:00:20;2.20;;;1.52;;
76852;SDS011;65825;52.232;10.566;2023-08-06T14:02:46;3.57;;;1.80;;
76852;SDS011;65825;52.232;10.566;2023-08-06T14:05:11;2.35;;;1.60;;
76852;SDS011;65825;52.232;10.566;2023-08-06T14:07:36;2.67;;;1.73;;
76852;SDS011;65825;52.232;10.566;2023-08-06T14:10:02;3.50;;;1.65;;
76852;SDS011;65825;52.232;10.566;2023-08-06T14:12:27;2.08;;;1.40;;
76852;SDS011;65825;52.232;10.566;2023-08-06T14:14:53;4.10;;;1.77;;
76852;SDS011;65825;52.232;10.566;2023-08-06T14:17:18;3.03;;;1.83;;
76852;SDS011;65825;52.232;10.566;2023-08-06T14:19:43;3.57;;;1.77;;
76852;SDS011;65825;52.232;10.566;2023-08-06T14:22:08;2.80;;;1.70;;
76852;SDS011;65825;52.232;10.566;2023-08-06T14:24:34;4.37;;;2.10;;
76852;SDS011;65825;52.232;10.566;2023-08-06T14:26:59;2.78;;;1.80;;
76852;SDS011;65825;52.232;10.566;2023-08-06T14:29:24;3.13;;;1.60;;
76852;SDS011;65825;52.232;10.566;2023-08-06T14:31:50;2.38;;;1.50;;
76852;SDS011;65825;52.232;10.566;2023-08-06T14:34:16;2.80;;;1.70;;
76852;SDS011;65825;52.232;10.566;2023-08-06T14:36:41;2.47;;;1.63;;
76852;SDS011;65825;52.232;10.566;2023-08-06T14:39:07;2.30;;;1.60;;
76852;SDS011;65825;52.232;10.566;2023-08-06T14:41:32;2.43;;;1.70;;